createdAt,value
2023-03-20T00:03:22.898Z,11.30
2023-03-20T00:08:29.294Z,11.30
2023-03-20T00:13:31.758Z,11.30
2023-03-20T00:18:33.837Z,11.20
2023-03-20T00:23:37.440Z,11.20
2023-03-20T00:28:42.171Z,11.10
2023-03-20T00:33:44.857Z,11.10
2023-03-20T00:38:48.329Z,11.10
2023-03-20T00:43:53.555Z,11.10
2023-03-20T00:48:55.871Z,11.10
2023-03-20T00:53:59.605Z,11.20
2023-03-20T00:59:03.319Z,11.10
2023-03-20T01:04:11.769Z,11.10
2023-03-20T01:09:15.415Z,11.10
2023-03-20T01:14:17.603Z,11.10
2023-03-20T01:19:19.683Z,11.10
2023-03-20T01:24:23.204Z,11.00
2023-03-20T01:29:26.826Z,11.00
2023-03-20T01:34:28.956Z,11.00
2023-03-20T01:39:35.040Z,11.00
2023-03-20T01:44:37.672Z,11.00
2023-03-20T01:50:18.279Z,11.00
2023-03-20T01:55:22.781Z,11.00
2023-03-20T02:00:25.468Z,11.00
2023-03-20T02:05:27.793Z,11.00
2023-03-20T02:10:34.472Z,11.00
2023-03-20T02:15:52.910Z,11.00
2023-03-20T02:21:26.643Z,11.00
2023-03-20T02:26:42.166Z,11.00
2023-03-20T02:32:19.072Z,11.00
2023-03-20T02:37:46.552Z,11.00
2023-03-20T02:42:58.504Z,11.10
2023-03-20T02:48:12.085Z,11.00
2023-03-20T02:53:26.014Z,11.00
2023-03-20T02:58:36.539Z,11.00
2023-03-20T03:03:44.919Z,11.00
2023-03-20T03:08:54.685Z,11.00
2023-03-20T03:13:58.309Z,11.00
2023-03-20T03:19:08.064Z,11.00
2023-03-20T03:24:39.746Z,10.90
2023-03-20T03:29:45.872Z,10.90
2023-03-20T03:34:48.553Z,10.90
2023-03-20T03:39:55.104Z,10.80
2023-03-20T03:45:02.488Z,10.80
2023-03-20T03:50:09.846Z,10.70
2023-03-20T03:55:19.599Z,10.70
2023-03-20T04:00:24.867Z,10.70
2023-03-20T04:05:30.806Z,10.70
2023-03-20T04:10:34.605Z,10.70
2023-03-20T04:15:36.979Z,10.70
2023-03-20T04:20:39.253Z,10.70
2023-03-20T04:25:42.903Z,10.60
2023-03-20T04:30:45.022Z,10.60
2023-03-20T04:35:47.326Z,10.60
2023-03-20T04:40:51.539Z,10.60
2023-03-20T04:45:53.709Z,10.60
2023-03-20T04:50:56.053Z,10.70
2023-03-20T04:56:01.913Z,10.70
2023-03-20T05:01:04.462Z,10.70
2023-03-20T05:06:07.482Z,10.70
2023-03-20T05:11:11.038Z,10.70
2023-03-20T05:16:13.133Z,10.70
2023-03-20T05:21:15.548Z,10.70
2023-03-20T05:26:19.292Z,10.70
2023-03-20T05:31:21.504Z,10.70
2023-03-20T05:36:23.741Z,10.70
2023-03-20T05:41:27.279Z,10.80
2023-03-20T05:46:29.477Z,10.80
2023-03-20T05:51:31.618Z,10.80
2023-03-20T05:56:35.363Z,10.80
2023-03-20T06:01:37.515Z,10.80
2023-03-20T06:06:39.731Z,10.80
2023-03-20T06:11:44.669Z,10.80
2023-03-20T06:16:46.912Z,10.90
2023-03-20T06:21:49.991Z,10.90
2023-03-20T06:26:53.578Z,10.90
2023-03-20T06:31:55.783Z,10.90
2023-03-20T06:36:57.902Z,10.90
2023-03-20T06:42:01.654Z,11.00
2023-03-20T06:47:03.901Z,11.00
2023-03-20T06:52:06.298Z,11.00
2023-03-20T06:57:10.132Z,11.00
2023-03-20T07:02:12.435Z,11.00
2023-03-20T07:07:14.739Z,11.00
2023-03-20T07:12:18.327Z,11.00
2023-03-20T07:17:20.517Z,11.00
2023-03-20T07:22:24.911Z,11.00
2023-03-20T07:27:28.555Z,11.10
2023-03-20T07:32:30.835Z,11.10
2023-03-20T07:37:33.936Z,11.10
2023-03-20T07:42:37.663Z,11.10
2023-03-20T07:47:39.834Z,11.10
2023-03-20T07:52:45.823Z,11.20
2023-03-20T07:57:50.207Z,11.20
2023-03-20T08:02:52.530Z,11.20
2023-03-20T08:07:54.642Z,11.20
2023-03-20T08:12:58.472Z,11.30
2023-03-20T08:18:00.708Z,11.30
2023-03-20T08:23:02.941Z,11.30
2023-03-20T08:28:06.739Z,11.50
2023-03-20T08:33:09.164Z,11.50
2023-03-20T08:38:13.757Z,11.60
2023-03-20T08:43:17.318Z,11.60
2023-03-20T08:48:19.608Z,11.70
2023-03-20T08:53:22.286Z,11.80
2023-03-20T08:58:26.033Z,11.90
2023-03-20T09:03:28.351Z,12.10
2023-03-20T09:08:30.599Z,12.30
2023-03-20T09:13:34.576Z,12.40
2023-03-20T09:18:37.000Z,12.50
2023-03-20T09:23:39.081Z,12.80
2023-03-20T09:28:42.665Z,13.10
2023-03-20T09:33:44.902Z,13.50
2023-03-20T09:38:47.220Z,13.90
2023-03-20T09:44:05.443Z,14.10
2023-03-20T09:49:17.664Z,14.30
2023-03-20T09:54:26.190Z,14.30
2023-03-20T09:59:32.493Z,14.50
2023-03-20T10:04:36.429Z,14.70
2023-03-20T10:09:38.790Z,15.30
2023-03-20T10:14:51.582Z,15.80
2023-03-20T10:19:58.901Z,15.90
2023-03-20T10:25:06.821Z,15.90
2023-03-20T10:30:29.303Z,15.80
2023-03-20T10:35:35.829Z,15.60
2023-03-20T10:40:40.652Z,15.60
2023-03-20T10:45:47.161Z,15.60
2023-03-20T10:50:53.956Z,15.60
2023-03-20T10:56:00.165Z,15.60
2023-03-20T11:01:04.193Z,15.60
2023-03-20T11:06:13.722Z,15.50
2023-03-20T11:11:22.837Z,15.40
2023-03-20T11:16:31.708Z,15.30
2023-03-20T11:21:37.508Z,15.20
2023-03-20T11:26:41.867Z,15.20
2023-03-20T11:31:45.851Z,15.10
2023-03-20T11:37:08.778Z,15.10
2023-03-20T11:42:24.725Z,15.00
2023-03-20T11:47:32.474Z,15.00
2023-03-20T11:52:35.506Z,15.10
2023-03-20T11:57:38.871Z,15.10
2023-03-20T12:02:43.589Z,15.20
2023-03-20T12:07:48.880Z,15.20
2023-03-20T12:12:58.879Z,15.20
2023-03-20T12:18:07.350Z,15.20
2023-03-20T12:23:15.009Z,15.20
2023-03-20T12:28:24.915Z,15.20
2023-03-20T12:33:40.170Z,15.20
2023-03-20T12:38:42.784Z,15.10
2023-03-20T12:44:04.479Z,15.00
2023-03-20T12:49:20.252Z,14.90
2023-03-20T12:54:38.644Z,14.80
2023-03-20T12:59:55.172Z,14.70
2023-03-20T13:05:07.842Z,14.60
2023-03-20T13:10:20.902Z,14.60
2023-03-20T13:15:31.911Z,14.60
2023-03-20T13:20:41.037Z,14.50
2023-03-20T13:26:08.657Z,14.50
2023-03-20T13:31:23.808Z,14.30
2023-03-20T13:36:37.747Z,14.10
2023-03-20T13:41:40.030Z,13.90
2023-03-20T13:46:46.136Z,13.80
2023-03-20T13:51:55.483Z,13.80
2023-03-20T13:57:06.727Z,13.70
2023-03-20T14:02:24.526Z,13.60
2023-03-20T14:07:33.370Z,13.50
2023-03-20T14:12:35.630Z,13.50
2023-03-20T14:17:44.879Z,13.50
2023-03-20T14:22:48.526Z,13.50
2023-03-20T14:27:56.482Z,13.50
2023-03-20T14:33:00.181Z,13.50
2023-03-20T14:38:26.558Z,13.40
2023-03-20T14:43:52.266Z,13.30
2023-03-20T14:48:55.432Z,13.10
2023-03-20T14:54:26.404Z,13.00
2023-03-20T14:59:33.007Z,12.90
2023-03-20T15:04:39.356Z,12.80
2023-03-20T15:09:46.775Z,12.70
2023-03-20T15:14:55.417Z,12.60
2023-03-20T15:20:04.531Z,12.60
2023-03-20T15:25:18.009Z,12.50
2023-03-20T15:30:22.956Z,12.40
2023-03-20T15:35:27.599Z,12.30
2023-03-20T15:40:47.634Z,12.20
2023-03-20T15:45:57.641Z,12.10
2023-03-20T15:51:06.484Z,12.00
2023-03-20T15:56:20.527Z,12.00
2023-03-20T16:01:25.824Z,11.90
2023-03-20T16:06:28.157Z,11.80
2023-03-20T16:11:40.350Z,11.80
2023-03-20T16:16:43.443Z,11.70
2023-03-20T16:21:50.090Z,11.60
2023-03-20T16:26:56.014Z,11.60
2023-03-20T16:32:02.858Z,11.50
2023-03-20T16:37:10.102Z,11.50
2023-03-20T16:42:25.033Z,11.50
2023-03-20T16:47:35.869Z,11.40
2023-03-20T16:52:41.866Z,11.30
2023-03-20T16:57:53.122Z,11.30
2023-03-20T17:03:12.976Z,11.30
2023-03-20T17:08:22.371Z,11.20
2023-03-20T17:13:26.454Z,11.10
2023-03-20T17:18:29.256Z,11.10
2023-03-20T17:23:32.290Z,11.00
2023-03-20T17:28:39.328Z,11.00
2023-03-20T17:33:41.622Z,11.00
2023-03-20T17:38:43.730Z,10.90
2023-03-20T17:43:47.658Z,10.90
2023-03-20T17:48:52.133Z,10.80
2023-03-20T17:53:56.253Z,10.80
2023-03-20T17:59:00.007Z,10.80
2023-03-20T18:04:06.338Z,10.80
2023-03-20T18:09:11.566Z,10.80
2023-03-20T18:14:15.095Z,10.80
2023-03-20T18:19:24.083Z,10.80
2023-03-20T18:24:27.043Z,10.80
2023-03-20T18:29:30.626Z,10.80
2023-03-20T18:34:32.761Z,10.80
2023-03-20T18:39:34.922Z,10.80
2023-03-20T18:44:40.560Z,10.80
2023-03-20T18:49:42.972Z,10.80
2023-03-20T18:54:46.083Z,10.80
2023-03-20T18:59:50.381Z,10.70
2023-03-20T19:04:52.526Z,10.70
2023-03-20T19:09:54.653Z,10.70
2023-03-20T19:14:58.182Z,10.80
2023-03-20T19:20:00.315Z,10.80
2023-03-20T19:25:02.638Z,10.80
2023-03-20T19:30:10.810Z,10.80
2023-03-20T19:36:01.239Z,10.80
2023-03-20T19:40:55.541Z,10.90
2023-03-20T19:46:02.598Z,10.90
2023-03-20T19:51:04.983Z,10.80
2023-03-20T19:56:07.517Z,10.90
2023-03-20T20:01:16.807Z,10.90
2023-03-20T20:06:22.161Z,10.90
2023-03-20T20:11:25.115Z,10.90
2023-03-20T20:16:28.722Z,11.00
2023-03-20T20:27:11.682Z,11.00
2023-03-20T20:32:21.159Z,11.00
2023-03-20T20:42:46.549Z,11.10
2023-03-20T20:47:50.525Z,11.10
2023-03-20T20:52:53.456Z,11.10
2023-03-20T20:57:55.751Z,11.20
2023-03-20T21:02:59.311Z,11.20
2023-03-20T21:08:01.464Z,11.20
2023-03-20T21:13:03.668Z,11.30
2023-03-20T21:18:07.330Z,11.30
2023-03-20T21:23:09.625Z,11.30
2023-03-20T21:28:12.182Z,11.30
2023-03-20T21:33:15.823Z,11.30
2023-03-20T21:38:58.585Z,11.40
2023-03-20T21:43:43.065Z,11.40
2023-03-20T22:00:22.623Z,11.50
2023-03-20T22:05:41.924Z,11.50
2023-03-20T22:11:18.186Z,11.50
2023-03-20T22:21:48.420Z,11.50
2023-03-20T22:27:21.753Z,11.50
2023-03-20T22:32:35.223Z,11.50
2023-03-20T22:42:57.402Z,11.50
2023-03-20T22:47:58.612Z,11.60
2023-03-20T22:53:02.142Z,11.60
2023-03-20T22:58:07.880Z,11.60
2023-03-20T23:03:22.352Z,11.60
2023-03-20T23:08:31.339Z,11.60
2023-03-20T23:13:33.900Z,11.60
2023-03-20T23:18:36.074Z,11.70
2023-03-20T23:23:39.850Z,11.70
2023-03-20T23:28:44.127Z,11.70
2023-03-20T23:33:49.960Z,11.70
2023-03-20T23:38:53.503Z,11.70
2023-03-20T23:43:55.686Z,11.70
2023-03-20T23:48:57.931Z,11.70
2023-03-20T23:54:01.482Z,11.70
2023-03-20T23:59:15.042Z,11.70
